EZY38KU EGHQ-EGCC
Flight info
| Callsign | EZY38KU |
|---|---|
| Flight time | 0h 48m |
| Altitude | 29000 |
| Route | EPACE DCT ACCOP DCT MOCQO P16 AXCIS |
| Aircraft | A320/M-SDE2E3FGHIJ1RWXYZ/LB1 |
Departure
| Time | 2026-05-04 19:12 |
|---|---|
| Airport | Cornwall Airport Newquay (EGHQ) |
Arrival
| Time | 2026-05-04 20:01 |
|---|---|
| Airport | Manchester Airport (EGCC) |
| Time | Latitude | Longitude | Altitude | Speed | Heading |
|---|---|---|---|---|---|
| 2026-05-04 18:56 | 50.44683 | -5.00456 | 332 ft | 0 kts | 75° |
| 2026-05-04 19:07 | 50.44680 | -5.00475 | 331 ft | 4 kts | 70° |
| 2026-05-04 19:08 | 50.44668 | -5.00511 | 329 ft | 4 kts | 47° |
| 2026-05-04 19:08 | 50.44661 | -5.00522 | 326 ft | 1 kts | 37° |
| 2026-05-04 19:08 | 50.44661 | -5.00523 | 330 ft | 0 kts | 37° |
| 2026-05-04 19:09 | 50.44668 | -5.00538 | 329 ft | 5 kts | 298° |
| 2026-05-04 19:09 | 50.44685 | -5.00606 | 324 ft | 8 kts | 296° |
| 2026-05-04 19:10 | 50.44722 | -5.00706 | 323 ft | 13 kts | 301° |
| 2026-05-04 19:10 | 50.44777 | -5.00853 | 319 ft | 16 kts | 301° |
| 2026-05-04 19:10 | 50.44807 | -5.00991 | 317 ft | 14 kts | 272° |
| 2026-05-04 19:10 | 50.44782 | -5.01099 | 314 ft | 7 kts | 228° |
| 2026-05-04 19:11 | 50.44768 | -5.01116 | 314 ft | 0 kts | 216° |
| 2026-05-04 19:11 | 50.44765 | -5.01120 | 314 ft | 2 kts | 216° |
| 2026-05-04 19:11 | 50.44743 | -5.01140 | 314 ft | 6 kts | 210° |
| 2026-05-04 19:11 | 50.44696 | -5.01150 | 315 ft | 8 kts | 153° |
| 2026-05-04 19:12 | 50.44588 | -5.00889 | 319 ft | 65 kts | 121° |
| 2026-05-04 19:12 | 50.43702 | -4.98551 | 562 ft | 160 kts | 120° |
| 2026-05-04 19:12 | 50.43128 | -4.97047 | 1232 ft | 161 kts | 117° |
| 2026-05-04 19:13 | 50.42549 | -4.95508 | 1804 ft | 170 kts | 117° |
| 2026-05-04 19:13 | 50.42067 | -4.93713 | 2116 ft | 189 kts | 90° |
| 2026-05-04 19:13 | 50.42501 | -4.91736 | 2441 ft | 207 kts | 47° |
| 2026-05-04 19:13 | 50.43577 | -4.90043 | 2885 ft | 231 kts | 44° |
| 2026-05-04 19:14 | 50.44765 | -4.88168 | 3458 ft | 251 kts | 45° |
| 2026-05-04 19:14 | 50.45973 | -4.86210 | 4360 ft | 255 kts | 46° |
| 2026-05-04 19:14 | 50.47226 | -4.84140 | 5297 ft | 261 kts | 47° |
| 2026-05-04 19:14 | 50.48481 | -4.82045 | 6196 ft | 265 kts | 48° |
| 2026-05-04 19:15 | 50.49747 | -4.79922 | 7079 ft | 269 kts | 47° |
| 2026-05-04 19:15 | 50.51038 | -4.77758 | 7933 ft | 273 kts | 48° |
| 2026-05-04 19:15 | 50.52344 | -4.75562 | 8823 ft | 277 kts | 48° |
| 2026-05-04 19:15 | 50.53665 | -4.73337 | 9714 ft | 281 kts | 48° |
| 2026-05-04 19:16 | 50.55009 | -4.71068 | 10428 ft | 291 kts | 48° |
| 2026-05-04 19:16 | 50.56441 | -4.68646 | 10723 ft | 314 kts | 49° |
| 2026-05-04 19:16 | 50.57967 | -4.66061 | 11216 ft | 328 kts | 48° |
| 2026-05-04 19:16 | 50.59541 | -4.63399 | 11871 ft | 336 kts | 48° |
| 2026-05-04 19:17 | 50.61150 | -4.60679 | 12598 ft | 342 kts | 49° |
| 2026-05-04 19:17 | 50.62762 | -4.57942 | 13321 ft | 348 kts | 49° |
| 2026-05-04 19:17 | 50.64420 | -4.55123 | 14027 ft | 354 kts | 49° |
| 2026-05-04 19:17 | 50.66096 | -4.52262 | 14689 ft | 358 kts | 49° |
| 2026-05-04 19:18 | 50.67797 | -4.49364 | 15367 ft | 361 kts | 49° |
| 2026-05-04 19:18 | 50.69510 | -4.46449 | 16056 ft | 364 kts | 49° |
| 2026-05-04 19:18 | 50.71240 | -4.43504 | 16756 ft | 368 kts | 49° |
| 2026-05-04 19:18 | 50.72989 | -4.40525 | 17438 ft | 371 kts | 49° |
| 2026-05-04 19:19 | 50.74750 | -4.37522 | 18112 ft | 375 kts | 49° |
| 2026-05-04 19:19 | 50.76526 | -4.34486 | 18714 ft | 378 kts | 49° |
| 2026-05-04 19:19 | 50.78315 | -4.31420 | 19278 ft | 382 kts | 49° |
| 2026-05-04 19:19 | 50.80010 | -4.28514 | 19794 ft | 385 kts | 49° |
| 2026-05-04 19:20 | 50.81837 | -4.25377 | 20309 ft | 390 kts | 49° |
| 2026-05-04 19:20 | 50.83682 | -4.22202 | 20830 ft | 394 kts | 49° |
| 2026-05-04 19:20 | 50.85547 | -4.18987 | 21343 ft | 399 kts | 49° |
| 2026-05-04 19:20 | 50.87427 | -4.15737 | 21862 ft | 403 kts | 49° |
| 2026-05-04 19:21 | 50.89326 | -4.12451 | 22388 ft | 406 kts | 49° |
| 2026-05-04 19:21 | 50.91244 | -4.09134 | 22925 ft | 410 kts | 49° |
| 2026-05-04 19:21 | 50.93179 | -4.05784 | 23446 ft | 414 kts | 49° |
| 2026-05-04 19:21 | 50.95130 | -4.02407 | 23902 ft | 417 kts | 49° |
| 2026-05-04 19:22 | 50.97099 | -3.98997 | 24357 ft | 420 kts | 49° |
| 2026-05-04 19:22 | 50.99073 | -3.95577 | 24815 ft | 422 kts | 49° |
| 2026-05-04 19:22 | 51.01058 | -3.92132 | 25274 ft | 423 kts | 49° |
| 2026-05-04 19:22 | 51.03003 | -3.88744 | 25715 ft | 425 kts | 49° |
| 2026-05-04 19:23 | 51.04997 | -3.85264 | 26148 ft | 427 kts | 49° |
| 2026-05-04 19:23 | 51.07000 | -3.81764 | 26575 ft | 429 kts | 49° |
| 2026-05-04 19:23 | 51.09014 | -3.78240 | 26978 ft | 431 kts | 50° |
| 2026-05-04 19:23 | 51.11037 | -3.74689 | 27346 ft | 435 kts | 50° |
| 2026-05-04 19:24 | 51.13071 | -3.71107 | 27723 ft | 438 kts | 50° |
| 2026-05-04 19:24 | 51.15113 | -3.67501 | 28118 ft | 440 kts | 50° |
| 2026-05-04 19:24 | 51.17137 | -3.63929 | 28504 ft | 442 kts | 50° |
| 2026-05-04 19:24 | 51.19240 | -3.60222 | 28893 ft | 445 kts | 50° |
| 2026-05-04 19:25 | 51.21434 | -3.56745 | 29013 ft | 444 kts | 41° |
| 2026-05-04 19:25 | 51.23915 | -3.54000 | 29024 ft | 431 kts | 31° |
| 2026-05-04 19:25 | 51.26634 | -3.52033 | 29028 ft | 428 kts | 20° |
| 2026-05-04 19:25 | 51.29515 | -3.50885 | 29017 ft | 425 kts | 8° |
| 2026-05-04 19:26 | 51.32437 | -3.50308 | 29032 ft | 422 kts | 7° |
| 2026-05-04 19:26 | 51.38255 | -3.49183 | 29026 ft | 421 kts | 7° |
| 2026-05-04 19:27 | 51.44020 | -3.48032 | 29024 ft | 420 kts | 7° |
| 2026-05-04 19:27 | 51.49861 | -3.46871 | 29029 ft | 420 kts | 7° |
| 2026-05-04 19:28 | 51.55618 | -3.45724 | 29042 ft | 419 kts | 8° |
| 2026-05-04 19:28 | 51.61382 | -3.44574 | 29050 ft | 416 kts | 7° |
| 2026-05-04 19:29 | 51.67123 | -3.43438 | 29050 ft | 415 kts | 7° |
| 2026-05-04 19:29 | 51.72845 | -3.42300 | 29047 ft | 414 kts | 8° |
| 2026-05-04 19:30 | 51.77634 | -3.41335 | 29040 ft | 413 kts | 8° |
| 2026-05-04 19:30 | 51.83945 | -3.40061 | 29039 ft | 411 kts | 8° |
| 2026-05-04 19:31 | 51.89634 | -3.38907 | 29037 ft | 412 kts | 7° |
| 2026-05-04 19:31 | 51.95324 | -3.37889 | 29033 ft | 412 kts | 5° |
| 2026-05-04 19:32 | 52.01055 | -3.37465 | 29027 ft | 412 kts | 2° |
| 2026-05-04 19:32 | 52.06779 | -3.37228 | 29050 ft | 411 kts | 2° |
| 2026-05-04 19:33 | 52.12485 | -3.36889 | 28950 ft | 408 kts | 3° |
| 2026-05-04 19:33 | 52.15285 | -3.36683 | 28677 ft | 399 kts | 3° |
| 2026-05-04 19:33 | 52.18041 | -3.36467 | 28398 ft | 394 kts | 3° |
| 2026-05-04 19:33 | 52.20774 | -3.36251 | 28124 ft | 392 kts | 3° |
| 2026-05-04 19:34 | 52.23493 | -3.36039 | 27849 ft | 391 kts | 3° |
| 2026-05-04 19:34 | 52.26200 | -3.35832 | 27576 ft | 388 kts | 3° |
| 2026-05-04 19:34 | 52.28892 | -3.35631 | 27317 ft | 386 kts | 3° |
| 2026-05-04 19:34 | 52.31569 | -3.35435 | 27047 ft | 385 kts | 3° |
| 2026-05-04 19:35 | 52.34240 | -3.35244 | 26776 ft | 381 kts | 2° |
| 2026-05-04 19:35 | 52.36874 | -3.35058 | 26360 ft | 378 kts | 2° |
| 2026-05-04 19:35 | 52.39500 | -3.34870 | 25929 ft | 376 kts | 2° |
| 2026-05-04 19:35 | 52.42113 | -3.34681 | 25479 ft | 376 kts | 2° |
| 2026-05-04 19:36 | 52.44722 | -3.34490 | 25037 ft | 375 kts | 2° |
| 2026-05-04 19:36 | 52.47327 | -3.34299 | 24581 ft | 375 kts | 1° |
| 2026-05-04 19:36 | 52.49930 | -3.34109 | 24124 ft | 374 kts | 3° |
| 2026-05-04 19:36 | 52.52533 | -3.33917 | 23667 ft | 374 kts | 2° |
| 2026-05-04 19:37 | 52.55131 | -3.33722 | 23150 ft | 374 kts | 2° |
| 2026-05-04 19:37 | 52.57725 | -3.33528 | 22694 ft | 372 kts | 2° |
| 2026-05-04 19:37 | 52.60268 | -3.33339 | 22237 ft | 370 kts | 2° |
| 2026-05-04 19:37 | 52.62819 | -3.32944 | 21780 ft | 368 kts | 11° |
| 2026-05-04 19:38 | 52.65268 | -3.31797 | 21352 ft | 365 kts | 20° |
| 2026-05-04 19:38 | 52.67647 | -3.30368 | 20914 ft | 364 kts | 20° |
| 2026-05-04 19:38 | 52.70022 | -3.28943 | 20467 ft | 362 kts | 20° |
| 2026-05-04 19:38 | 52.72385 | -3.27531 | 20039 ft | 361 kts | 20° |
| 2026-05-04 19:39 | 52.74732 | -3.26136 | 19696 ft | 356 kts | 20° |
| 2026-05-04 19:39 | 52.77050 | -3.24760 | 19361 ft | 352 kts | 20° |
| 2026-05-04 19:39 | 52.79339 | -3.23394 | 19026 ft | 348 kts | 20° |
| 2026-05-04 19:39 | 52.81608 | -3.22032 | 18695 ft | 345 kts | 20° |
| 2026-05-04 19:40 | 52.83856 | -3.20678 | 18369 ft | 343 kts | 20° |
| 2026-05-04 19:40 | 52.86092 | -3.19329 | 18019 ft | 341 kts | 20° |
| 2026-05-04 19:40 | 52.88322 | -3.18020 | 17691 ft | 339 kts | 16° |
| 2026-05-04 19:40 | 52.90628 | -3.17304 | 17369 ft | 336 kts | 4° |
| 2026-05-04 19:41 | 52.92958 | -3.17121 | 17053 ft | 336 kts | 2° |
| 2026-05-04 19:41 | 52.95287 | -3.16945 | 16732 ft | 333 kts | 2° |
| 2026-05-04 19:41 | 52.97592 | -3.16765 | 16419 ft | 331 kts | 2° |
| 2026-05-04 19:41 | 52.99888 | -3.16581 | 16101 ft | 329 kts | 1° |
| 2026-05-04 19:42 | 53.01397 | -3.16461 | 15895 ft | 328 kts | 2° |
| 2026-05-04 19:42 | 53.03669 | -3.16281 | 15588 ft | 325 kts | 1° |
| 2026-05-04 19:42 | 53.05927 | -3.16101 | 15275 ft | 324 kts | 2° |
| 2026-05-04 19:42 | 53.08172 | -3.15922 | 14966 ft | 322 kts | 1° |
| 2026-05-04 19:43 | 53.10403 | -3.15746 | 14657 ft | 321 kts | 1° |
| 2026-05-04 19:43 | 53.12626 | -3.15569 | 14348 ft | 319 kts | 1° |
| 2026-05-04 19:43 | 53.14841 | -3.15392 | 14049 ft | 318 kts | 1° |
| 2026-05-04 19:43 | 53.17044 | -3.15214 | 13722 ft | 316 kts | 1° |
| 2026-05-04 19:44 | 53.19235 | -3.15036 | 13408 ft | 314 kts | 1° |
| 2026-05-04 19:44 | 53.21411 | -3.14862 | 13109 ft | 312 kts | 0° |
| 2026-05-04 19:44 | 53.23570 | -3.14691 | 12808 ft | 310 kts | 1° |
| 2026-05-04 19:44 | 53.25717 | -3.14523 | 12503 ft | 308 kts | 0° |
| 2026-05-04 19:45 | 53.27851 | -3.14356 | 12202 ft | 306 kts | 0° |
| 2026-05-04 19:45 | 53.29974 | -3.14185 | 11913 ft | 304 kts | 1° |
| 2026-05-04 19:45 | 53.32083 | -3.14016 | 11625 ft | 303 kts | 0° |
| 2026-05-04 19:45 | 53.34181 | -3.13852 | 11336 ft | 301 kts | 0° |
| 2026-05-04 19:46 | 53.36265 | -3.13619 | 11046 ft | 300 kts | 7° |
| 2026-05-04 19:46 | 53.38247 | -3.12560 | 10763 ft | 299 kts | 26° |
| 2026-05-04 19:46 | 53.39933 | -3.10535 | 10471 ft | 299 kts | 44° |
| 2026-05-04 19:46 | 53.41179 | -3.07768 | 10177 ft | 298 kts | 59° |
| 2026-05-04 19:47 | 53.42212 | -3.04759 | 9873 ft | 298 kts | 58° |
| 2026-05-04 19:47 | 53.43250 | -3.01759 | 9586 ft | 296 kts | 58° |
| 2026-05-04 19:47 | 53.44282 | -2.98785 | 9292 ft | 295 kts | 58° |
| 2026-05-04 19:47 | 53.45313 | -2.95821 | 9005 ft | 294 kts | 58° |
| 2026-05-04 19:48 | 53.46337 | -2.92872 | 8721 ft | 291 kts | 58° |
| 2026-05-04 19:48 | 53.47353 | -2.89935 | 8449 ft | 290 kts | 58° |
| 2026-05-04 19:48 | 53.48362 | -2.87014 | 8158 ft | 289 kts | 58° |
| 2026-05-04 19:48 | 53.49363 | -2.84111 | 7884 ft | 286 kts | 58° |
| 2026-05-04 19:49 | 53.50356 | -2.81217 | 7608 ft | 285 kts | 59° |
| 2026-05-04 19:49 | 53.51343 | -2.78328 | 7336 ft | 283 kts | 59° |
| 2026-05-04 19:49 | 53.52306 | -2.75514 | 7203 ft | 272 kts | 58° |
| 2026-05-04 19:49 | 53.53157 | -2.72803 | 7092 ft | 263 kts | 66° |
| 2026-05-04 19:50 | 53.53742 | -2.69967 | 7063 ft | 253 kts | 72° |
| 2026-05-04 19:50 | 53.54182 | -2.67113 | 7065 ft | 252 kts | 74° |
| 2026-05-04 19:50 | 53.54565 | -2.64271 | 7059 ft | 253 kts | 78° |
| 2026-05-04 19:50 | 53.54854 | -2.61345 | 6810 ft | 253 kts | 79° |
| 2026-05-04 19:51 | 53.55013 | -2.58418 | 6576 ft | 250 kts | 88° |
| 2026-05-04 19:51 | 53.55011 | -2.55505 | 6319 ft | 248 kts | 90° |
| 2026-05-04 19:51 | 53.54983 | -2.52613 | 6054 ft | 247 kts | 90° |
| 2026-05-04 19:51 | 53.54951 | -2.49728 | 5792 ft | 246 kts | 90° |
| 2026-05-04 19:52 | 53.54920 | -2.46859 | 5535 ft | 244 kts | 90° |
| 2026-05-04 19:52 | 53.54891 | -2.44012 | 5279 ft | 244 kts | 91° |
| 2026-05-04 19:52 | 53.54856 | -2.41165 | 5026 ft | 243 kts | 90° |
| 2026-05-04 19:52 | 53.54820 | -2.38331 | 4758 ft | 241 kts | 90° |
| 2026-05-04 19:53 | 53.54786 | -2.35516 | 4497 ft | 240 kts | 90° |
| 2026-05-04 19:53 | 53.54754 | -2.32712 | 4249 ft | 240 kts | 90° |
| 2026-05-04 19:53 | 53.54721 | -2.29918 | 3986 ft | 239 kts | 91° |
| 2026-05-04 19:53 | 53.54694 | -2.27128 | 3723 ft | 237 kts | 89° |
| 2026-05-04 19:54 | 53.54658 | -2.24367 | 3553 ft | 235 kts | 90° |
| 2026-05-04 19:54 | 53.54622 | -2.21618 | 3515 ft | 236 kts | 91° |
| 2026-05-04 19:54 | 53.54584 | -2.18855 | 3515 ft | 237 kts | 90° |
| 2026-05-04 19:54 | 53.54545 | -2.16079 | 3513 ft | 237 kts | 90° |
| 2026-05-04 19:55 | 53.54510 | -2.13312 | 3514 ft | 236 kts | 90° |
| 2026-05-04 19:55 | 53.54423 | -2.10622 | 3510 ft | 225 kts | 102° |
| 2026-05-04 19:55 | 53.53711 | -2.08407 | 3514 ft | 211 kts | 134° |
| 2026-05-04 19:55 | 53.52673 | -2.06738 | 3520 ft | 204 kts | 139° |
| 2026-05-04 19:56 | 53.51619 | -2.05213 | 3514 ft | 198 kts | 140° |
| 2026-05-04 19:56 | 53.50548 | -2.03789 | 3533 ft | 196 kts | 151° |
| 2026-05-04 19:56 | 53.49274 | -2.03088 | 3511 ft | 193 kts | 174° |
| 2026-05-04 19:56 | 53.47944 | -2.03222 | 3511 ft | 192 kts | 197° |
| 2026-05-04 19:57 | 53.46749 | -2.04148 | 3491 ft | 190 kts | 218° |
| 2026-05-04 19:57 | 53.45836 | -2.05714 | 3332 ft | 188 kts | 233° |
| 2026-05-04 19:57 | 53.45026 | -2.07412 | 3104 ft | 186 kts | 233° |
| 2026-05-04 19:57 | 53.44215 | -2.09110 | 2851 ft | 186 kts | 234° |
| 2026-05-04 19:58 | 53.43407 | -2.10797 | 2496 ft | 186 kts | 233° |
| 2026-05-04 19:58 | 53.42598 | -2.12484 | 2241 ft | 184 kts | 234° |
| 2026-05-04 19:58 | 53.41814 | -2.14116 | 1991 ft | 176 kts | 234° |
| 2026-05-04 19:58 | 53.41060 | -2.15685 | 1753 ft | 171 kts | 235° |
| 2026-05-04 19:59 | 53.40316 | -2.17233 | 1523 ft | 170 kts | 235° |
| 2026-05-04 19:59 | 53.39578 | -2.18769 | 1285 ft | 169 kts | 234° |
| 2026-05-04 19:59 | 53.38858 | -2.20264 | 1059 ft | 161 kts | 235° |
| 2026-05-04 19:59 | 53.38171 | -2.21691 | 877 ft | 155 kts | 235° |
| 2026-05-04 20:00 | 53.37499 | -2.23086 | 687 ft | 153 kts | 233° |
| 2026-05-04 20:00 | 53.36829 | -2.24479 | 514 ft | 154 kts | 231° |
| 2026-05-04 20:00 | 53.36148 | -2.25887 | 309 ft | 156 kts | 233° |
| 2026-05-04 20:00 | 53.35523 | -2.27187 | 250 ft | 115 kts | 230° |
| 2026-05-04 20:01 | 53.35193 | -2.27873 | 237 ft | 56 kts | 231° |
| 2026-05-04 20:01 | 53.34992 | -2.28330 | 231 ft | 41 kts | 245° |
| 2026-05-04 20:01 | 53.34941 | -2.28667 | 228 ft | 13 kts | 269° |
| 2026-05-04 20:01 | 53.35000 | -2.28751 | 227 ft | 12 kts | 13° |
| 2026-05-04 20:02 | 53.35062 | -2.28651 | 229 ft | 13 kts | 51° |
| 2026-05-04 20:02 | 53.35124 | -2.28522 | 227 ft | 17 kts | 51° |
| 2026-05-04 20:02 | 53.35201 | -2.28363 | 231 ft | 17 kts | 51° |
| 2026-05-04 20:02 | 53.35291 | -2.28222 | 232 ft | 19 kts | 31° |
| 2026-05-04 20:03 | 53.35415 | -2.28161 | 236 ft | 19 kts | 8° |
| 2026-05-04 20:03 | 53.35538 | -2.28069 | 236 ft | 18 kts | 40° |
| 2026-05-04 20:03 | 53.35612 | -2.27928 | 240 ft | 14 kts | 49° |
| 2026-05-04 20:03 | 53.35681 | -2.27885 | 244 ft | 10 kts | 6° |
| 2026-05-04 20:04 | 53.35747 | -2.27874 | 247 ft | 9 kts | 6° |
| 2026-05-04 20:04 | 53.35800 | -2.27864 | 250 ft | 7 kts | 6° |
| 2026-05-04 20:04 | 53.35851 | -2.27855 | 253 ft | 8 kts | 6° |
| 2026-05-04 20:04 | 53.35923 | -2.27850 | 255 ft | 13 kts | 354° |
| 2026-05-04 20:05 | 53.36017 | -2.27938 | 255 ft | 18 kts | 319° |
| 2026-05-04 20:05 | 53.36118 | -2.28088 | 255 ft | 21 kts | 316° |
| 2026-05-04 20:05 | 53.36223 | -2.28266 | 255 ft | 21 kts | 314° |
| 2026-05-04 20:05 | 53.36316 | -2.28422 | 255 ft | 13 kts | 315° |
| 2026-05-04 20:06 | 53.36399 | -2.28484 | 255 ft | 9 kts | 344° |
| 2026-05-04 20:06 | 53.36461 | -2.28559 | 255 ft | 13 kts | 316° |
| 2026-05-04 20:06 | 53.36529 | -2.28673 | 255 ft | 14 kts | 315° |
| 2026-05-04 20:06 | 53.36594 | -2.28775 | 255 ft | 10 kts | 329° |
| 2026-05-04 20:07 | 53.36655 | -2.28738 | 255 ft | 10 kts | 41° |
| 2026-05-04 20:07 | 53.36708 | -2.28653 | 255 ft | 11 kts | 44° |
| 2026-05-04 20:07 | 53.36757 | -2.28573 | 255 ft | 7 kts | 44° |
| 2026-05-04 20:07 | 53.36791 | -2.28581 | 255 ft | 5 kts | 321° |
| 2026-05-04 20:08 | 53.36808 | -2.28610 | 255 ft | 3 kts | 315° |
| 2026-05-04 20:08 | 53.36819 | -2.28628 | 255 ft | 1 kts | 315° |
| 2026-05-04 20:08 | 53.36820 | -2.28628 | 255 ft | 0 kts | 315° |